• Join FlightAware (Why Join?)
  • Login
  • US Flag 
05:23PM EDT


 

Airport Tracker/Info


-or-


 

Live Flight TrackerFlight Track Log ✈ N828AF ✈ 23-Apr-2013 ✈ KYIP - KGRR

Flight Track Log - Related Links

Times and Time Zones

All times are in EDT time to prevent confusion due to time zone crossing. See the N828AF flight status page for this flight to view local times or setup timezone preferences in your user account.

Time Position Orientation Groundspeed Altitude Reporting Facility
EDT Latitude Longitude Course Direction KTS MPH feet Rate Location/Type
11:32AM 42.2289 -83.5431 228° Southwest 165 190 1,500  Level FAA TRACON SMA TRACON (SMA)
11:32AM 42.2189 -83.5581 228° Southwest 184 212 2,200 1,980 Climbing FAA TRACON SMA TRACON (SMA)
11:33AM 42.2050 -83.5764 224° Southwest 194 223 2,800 1,020 Climbing FAA TRACON SMA TRACON (SMA)
11:33AM 42.1919 -83.5931 223° Southwest 206 237 2,900 420 Climbing FAA TRACON SMA TRACON (SMA)
11:33AM 42.1839 -83.6153 244° Southwest 236 272 3,100 1,020 Climbing FAA TRACON SMA TRACON (SMA)
11:34AM 42.1917 -83.6497 287° West 270 311 3,600 1,500 Climbing FAA TRACON SMA TRACON (SMA)
11:34AM 42.2031 -83.6761 300° West 273 314 4,100 1,860 Climbing FAA TRACON SMA TRACON (SMA)
11:34AM 42.2142 -83.7044 298° West 276 318 4,900 2,820 Climbing FAA TRACON SMA TRACON (SMA)
11:35AM 42.2278 -83.7392 298° West 272 313 6,000 3,000 Climbing FAA TRACON SMA TRACON (SMA)
11:35AM 42.2389 -83.7650 300° West 264 304 6,900 2,700 Climbing FAA TRACON SMA TRACON (SMA)
11:35AM 42.2508 -83.7897 303° West 255 293 7,800 2,940 Climbing FAA TRACON SMA TRACON (SMA)
11:36AM 42.2703 -83.8356 300° West 246 283 9,400 2,940 Climbing Cleveland Center
11:37AM 42.2881 -83.8758 301° West 248 285 10,900 2,280 Climbing Cleveland Center
11:38AM 42.3231 -83.9561 301° West 263 303 12,900 1,920 Climbing Cleveland Center
11:39AM 42.3581 -84.0481 297° West 263 303 14,800 1,500 Climbing Cleveland Center
11:40AM 42.3906 -84.1397 296° West 273 314 15,900 540 Climbing Cleveland Center
11:41AM 42.4292 -84.2433 297° West 292 336 15,900  Level Cleveland Center
11:42AM 42.4653 -84.3467 295° West 297 342 15,900  Level Cleveland Center
11:43AM 42.4994 -84.4472 295° West 297 342 15,900 -120 Level Cleveland Center
11:44AM 42.5358 -84.5425 297° West 297 342 15,700 -960 Descending Cleveland Center
11:45AM 42.5717 -84.6492 295° West 297 342 14,000 -1,620 Descending Cleveland Center
11:45AM 42.5944 -84.7039 299° West 309 356 13,200 -1,560 Descending Chicago Center
11:46AM 42.6311 -84.8056 296° West 305 351 11,500 -1,620 Descending Chicago Center
11:47AM 42.6661 -84.9058 295° West 298 343 9,900 -1,620 Descending Chicago Center
11:48AM 42.6986 -85.0017 295° West 285 328 8,300 -960 Descending Chicago Center
11:49AM 42.7275 -85.0839 296° West 251 289 8,000 -1,200 Descending Chicago Center
11:50AM 42.7600 -85.1750 296° West 226 260 5,900 -1,860 Descending Chicago Center
11:51AM 42.7897 -85.2617 295° West 244 281 4,300 -1,320 Descending Chicago Center
11:52AM 42.8236 -85.3456 299° West 253 291 3,200 -1,020 Descending Chicago Center
11:53AM 42.8603 -85.4169 305° West 242 278 2,300 -840 Descending Chicago Center
11:54AM 42.8839 -85.4744 299° West 200 230 1,500 -660 Descending Chicago Center
11:55AM 42.8797 -85.5250 264° West 162 186 1,000 -540 Descending Chicago Center